Time;durP1;ratioP1;P1;durP2;ratioP2;P2;SDS_P1;SDS_P2;PMS_P1;PMS_P2;Temp;Humidity;BMP_temperature;BMP_pressure;BME280_temperature;BME280_humidity;BME280_pressure;Samples;Min_cycle;Max_cycle;Signal;HPM_P1;HPM_P2
2022/02/07 00:02:01;;;;;;;;;;;8.30;99.90;;;;;;4162249;28;19932;-54
2022/02/07 00:04:04;;;;;;;;;;;8.30;99.90;;;;;;4176044;28;19925;-53
2022/02/07 00:06:08;;;;;;;;;;;8.30;99.90;;;;;;4177273;28;19929;-54
2022/02/07 00:08:11;;;;;;;;;;;8.30;99.90;;;;;;4177344;28;19925;-54
2022/02/07 00:10:13;;;;;;;;;;;8.30;99.90;;;;;;4173474;28;20398;-53
2022/02/07 00:12:16;;;;;;;;;;;8.30;99.90;;;;;;4176467;28;19957;-53
2022/02/07 00:14:18;;;;;;;;;;;8.30;99.90;;;;;;4177732;28;19986;-53
2022/02/07 00:16:20;;;;;;;;;;;8.30;99.90;;;;;;4172016;28;19929;-53
2022/02/07 00:18:23;;;;;;;;;;;8.40;99.90;;;;;;4174020;28;20016;-53
2022/02/07 00:20:26;;;;;;;;;;;8.40;99.90;;;;;;4177615;28;19932;-53
2022/02/07 00:22:28;;;;;;;;;;;8.30;99.90;;;;;;4158351;28;19952;-54
2022/02/07 00:24:30;;;;;;;;;;;8.20;99.90;;;;;;4174429;28;19967;-53
2022/02/07 00:26:32;;;;;;;;;;;8.10;99.90;;;;;;4178138;28;19928;-53
2022/02/07 00:28:34;;;;;;;;;;;8.20;99.90;;;;;;4176407;28;20384;-54
2022/02/07 00:30:36;;;;;;;;;;;8.20;99.90;;;;;;4148701;28;20375;-53
2022/02/07 00:32:38;;;;;;;;;;;8.20;99.90;;;;;;4169592;28;20015;-53
2022/02/07 00:34:40;;;;;;;;;;;8.30;99.90;;;;;;4175060;28;19967;-53
2022/02/07 00:36:42;;;;;;;;;;;8.20;99.90;;;;;;4177919;28;20011;-54
2022/02/07 00:38:47;;;;;;;;;;;8.30;99.90;;;;;;4169007;28;20385;-53
2022/02/07 00:41:11;;;;;;;;;;;8.20;99.90;;;;;;4172387;28;19967;-53
2022/02/07 00:43:25;;;;;;;;;;;8.20;99.90;;;;;;4173914;28;20296;-54
2022/02/07 00:47:39;;;;;;;;;;;8.20;99.90;;;;;;4169509;28;19936;-54
2022/02/07 00:49:42;;;;;;;;;;;8.20;99.90;;;;;;4175723;28;20044;-54
2022/02/07 00:51:44;;;;;;;;;;;8.20;99.90;;;;;;4177855;28;20391;-54
2022/02/07 00:53:46;;;;;;;;;;;8.20;99.90;;;;;;4176885;28;19975;-54
2022/02/07 00:55:47;;;;;;;;;;;8.20;99.90;;;;;;4176008;28;20419;-54
2022/02/07 00:57:49;;;;;;;;;;;8.20;99.90;;;;;;4177966;28;20393;-53
2022/02/07 00:59:51;;;;;;;;;;;8.20;99.90;;;;;;4175696;28;19924;-54
2022/02/07 01:01:53;;;;;;;;;;;8.30;99.90;;;;;;4176080;28;20435;-53
2022/02/07 01:03:55;;;;;;;;;;;8.10;99.90;;;;;;4179772;28;19925;-53
2022/02/07 01:05:57;;;;;;;;;;;8.10;99.90;;;;;;4171119;28;19960;-54
2022/02/07 01:08:00;;;;;;;;;;;8.10;99.90;;;;;;4170804;28;19932;-54
2022/02/07 01:10:03;;;;;;;;;;;8.00;99.90;;;;;;4181751;28;19929;-54
2022/02/07 01:12:21;;;;;;;;;;;8.10;99.90;;;;;;4178535;28;19926;-53
2022/02/07 01:14:35;;;;;;;;;;;8.10;99.90;;;;;;4178023;28;19924;-54
2022/02/07 01:17:11;;;;;;;;;;;8.00;99.90;;;;;;4166066;28;20412;-54
2022/02/07 01:45:58;;;;;;;;;;;7.90;99.90;;;;;;4172982;28;19963;-54
2022/02/07 01:50:02;;;;;;;;;;;7.80;99.90;;;;;;4170134;28;20044;-54
2022/02/07 01:56:28;;;;;;;;;;;7.90;99.90;;;;;;4178872;28;19924;-53
2022/02/07 01:58:30;;;;;;;;;;;7.80;99.90;;;;;;4177676;28;19968;-53
2022/02/07 02:00:33;;;;;;;;;;;7.80;99.90;;;;;;4178743;28;19924;-53
2022/02/07 02:02:35;;;;;;;;;;;7.80;99.90;;;;;;4179207;28;19925;-52
2022/02/07 02:04:37;;;;;;;;;;;7.80;99.90;;;;;;4178597;28;20020;-53
2022/02/07 02:06:39;;;;;;;;;;;7.80;99.90;;;;;;4178542;28;19949;-53
2022/02/07 02:08:42;;;;;;;;;;;7.80;99.90;;;;;;4180068;28;19928;-52
2022/02/07 02:10:46;;;;;;;;;;;7.80;99.90;;;;;;4176993;28;19931;-54
2022/02/07 02:13:25;;;;;;;;;;;7.70;99.90;;;;;;4178771;28;20152;-53
2022/02/07 02:22:36;;;;;;;;;;;7.80;99.90;;;;;;4151498;28;19969;-54
2022/02/07 02:36:10;;;;;;;;;;;7.70;99.90;;;;;;4177100;28;19966;-53
2022/02/07 02:38:07;;;;;;;;;;;7.70;99.90;;;;;;4177425;28;20300;-54
2022/02/07 02:47:04;;;;;;;;;;;7.70;99.90;;;;;;4177733;28;19990;-53
2022/02/07 02:49:07;;;;;;;;;;;7.70;99.90;;;;;;4166089;28;19998;-53
2022/02/07 02:51:09;;;;;;;;;;;7.60;99.90;;;;;;4177792;28;20019;-54
2022/02/07 02:53:12;;;;;;;;;;;7.70;99.90;;;;;;4177874;28;19928;-53
2022/02/07 02:55:14;;;;;;;;;;;7.60;99.90;;;;;;4165148;28;20541;-54
2022/02/07 02:57:16;;;;;;;;;;;7.60;99.90;;;;;;4172710;28;20565;-54
2022/02/07 02:59:18;;;;;;;;;;;7.60;99.90;;;;;;4166631;28;20373;-53
2022/02/07 03:01:20;;;;;;;;;;;7.60;99.90;;;;;;4179659;28;20447;-53
2022/02/07 03:03:22;;;;;;;;;;;7.60;99.90;;;;;;4172450;28;19925;-53
2022/02/07 03:05:24;;;;;;;;;;;7.60;99.90;;;;;;4164343;28;19999;-54
2022/02/07 03:07:26;;;;;;;;;;;7.60;99.90;;;;;;4178239;28;20016;-54
2022/02/07 03:09:29;;;;;;;;;;;7.60;99.90;;;;;;4173010;28;20019;-54
2022/02/07 03:11:31;;;;;;;;;;;7.60;99.90;;;;;;4177709;28;19960;-53
2022/02/07 03:13:46;;;;;;;;;;;7.60;99.90;;;;;;4175689;28;19925;-53
2022/02/07 03:18:09;;;;;;;;;;;7.50;99.90;;;;;;4176174;28;19925;-53
2022/02/07 03:20:11;;;;;;;;;;;7.50;99.90;;;;;;4179540;28;19929;-53
2022/02/07 03:22:13;;;;;;;;;;;7.50;99.90;;;;;;4171435;28;19957;-53
2022/02/07 03:24:15;;;;;;;;;;;7.50;99.90;;;;;;4167729;28;19924;-53
2022/02/07 03:26:19;;;;;;;;;;;7.50;99.90;;;;;;4179034;28;19925;-54
2022/02/07 03:28:22;;;;;;;;;;;7.40;99.90;;;;;;4171898;28;19968;-52
2022/02/07 03:30:24;;;;;;;;;;;7.40;99.90;;;;;;4166510;28;20012;-53
2022/02/07 03:32:25;;;;;;;;;;;7.40;99.90;;;;;;4163459;28;19964;-54
2022/02/07 03:34:27;;;;;;;;;;;7.50;99.90;;;;;;4174308;28;20437;-54
2022/02/07 03:36:31;;;;;;;;;;;7.40;99.90;;;;;;4177273;28;19928;-54
2022/02/07 03:38:33;;;;;;;;;;;7.40;99.90;;;;;;4165127;28;20316;-54
2022/02/07 03:40:35;;;;;;;;;;;7.40;99.90;;;;;;4171800;28;19956;-54
2022/02/07 03:42:37;;;;;;;;;;;7.40;99.90;;;;;;4177917;28;20856;-52
2022/02/07 03:44:39;;;;;;;;;;;7.30;99.90;;;;;;4169215;28;19955;-53
2022/02/07 03:46:41;;;;;;;;;;;7.30;99.90;;;;;;4172415;28;20076;-54
2022/02/07 03:48:43;;;;;;;;;;;7.20;99.90;;;;;;4178701;28;20371;-54
2022/02/07 03:50:45;;;;;;;;;;;7.30;99.90;;;;;;4177454;28;19972;-54
2022/02/07 03:52:47;;;;;;;;;;;7.20;99.90;;;;;;4176836;28;19928;-53
2022/02/07 03:54:49;;;;;;;;;;;7.20;99.90;;;;;;4177272;28;19960;-53
2022/02/07 03:56:51;;;;;;;;;;;7.20;99.90;;;;;;4174649;28;19929;-53
2022/02/07 03:58:53;;;;;;;;;;;7.20;99.90;;;;;;4176924;28;19994;-52
2022/02/07 04:00:56;;;;;;;;;;;7.20;99.90;;;;;;4178454;28;20412;-53
2022/02/07 04:03:02;;;;;;;;;;;7.20;99.90;;;;;;4177070;28;19935;-54
2022/02/07 04:07:25;;;;;;;;;;;7.00;99.90;;;;;;4176840;28;20027;-54
2022/02/07 04:09:33;;;;;;;;;;;7.00;99.90;;;;;;4178524;28;20003;-54
2022/02/07 04:11:57;;;;;;;;;;;7.00;99.90;;;;;;4173709;28;19926;-52
2022/02/07 04:14:00;;;;;;;;;;;7.00;99.90;;;;;;4167707;28;19929;-53
2022/02/07 04:16:03;;;;;;;;;;;7.00;99.90;;;;;;4170515;28;20474;-52
2022/02/07 04:18:10;;;;;;;;;;;7.00;99.90;;;;;;4174140;28;19970;-53
2022/02/07 04:20:12;;;;;;;;;;;6.90;99.90;;;;;;4176906;28;19964;-53
2022/02/07 04:22:14;;;;;;;;;;;6.90;99.90;;;;;;4178415;28;20007;-54
2022/02/07 04:24:16;;;;;;;;;;;6.90;99.90;;;;;;4176671;28;19925;-53
2022/02/07 04:26:19;;;;;;;;;;;6.90;99.90;;;;;;4176698;28;19928;-53
2022/02/07 04:28:22;;;;;;;;;;;6.90;99.90;;;;;;4178241;28;19987;-53
2022/02/07 04:30:24;;;;;;;;;;;6.90;99.90;;;;;;4176687;28;20577;-53
2022/02/07 04:32:26;;;;;;;;;;;6.80;99.90;;;;;;4176608;28;19936;-53
2022/02/07 04:34:29;;;;;;;;;;;6.80;99.90;;;;;;4178377;28;20595;-54
2022/02/07 04:36:31;;;;;;;;;;;6.80;99.90;;;;;;4175112;28;19933;-54
2022/02/07 04:38:33;;;;;;;;;;;6.80;99.90;;;;;;4180327;28;19932;-54
2022/02/07 04:40:35;;;;;;;;;;;6.80;99.90;;;;;;4176286;28;19925;-53
2022/02/07 04:42:37;;;;;;;;;;;6.80;99.90;;;;;;4181880;28;19983;-54
2022/02/07 04:44:53;;;;;;;;;;;6.80;99.90;;;;;;4182192;28;19964;-53
2022/02/07 04:51:37;;;;;;;;;;;6.70;99.90;;;;;;4180666;28;19951;-54
2022/02/07 05:04:30;;;;;;;;;;;6.80;99.90;;;;;;4182437;28;19925;-52
2022/02/07 05:15:39;;;;;;;;;;;6.80;99.90;;;;;;4168938;28;19928;-54
2022/02/07 05:17:41;;;;;;;;;;;6.80;99.90;;;;;;4181615;28;19929;-53
2022/02/07 05:19:43;;;;;;;;;;;6.80;99.90;;;;;;4178569;28;19929;-53
2022/02/07 05:21:45;;;;;;;;;;;6.80;99.90;;;;;;4170198;28;19932;-53
2022/02/07 05:23:47;;;;;;;;;;;6.80;99.90;;;;;;4170164;28;20007;-54
2022/02/07 05:25:49;;;;;;;;;;;6.80;99.90;;;;;;4175068;28;19935;-53
2022/02/07 05:27:51;;;;;;;;;;;6.90;99.90;;;;;;4183291;28;20377;-53
2022/02/07 05:29:53;;;;;;;;;;;6.90;99.90;;;;;;4171593;28;19932;-54
2022/02/07 05:31:55;;;;;;;;;;;6.90;99.90;;;;;;4174805;28;19933;-54
2022/02/07 05:33:57;;;;;;;;;;;6.90;99.90;;;;;;4182044;28;20636;-53
2022/02/07 05:35:59;;;;;;;;;;;6.80;99.90;;;;;;4181811;28;20396;-54
2022/02/07 05:38:02;;;;;;;;;;;6.90;99.90;;;;;;4180823;28;20004;-54
2022/02/07 05:40:10;;;;;;;;;;;7.00;99.90;;;;;;4180859;28;20633;-52
2022/02/07 05:42:12;;;;;;;;;;;7.00;99.90;;;;;;4172778;28;19929;-54
2022/02/07 05:44:15;;;;;;;;;;;7.10;99.90;;;;;;4175046;28;20396;-53
2022/02/07 05:46:17;;;;;;;;;;;7.00;99.90;;;;;;4182373;28;19925;-53
2022/02/07 05:48:19;;;;;;;;;;;7.00;99.90;;;;;;4181110;28;20011;-53
2022/02/07 05:50:21;;;;;;;;;;;7.00;99.90;;;;;;4176912;28;19968;-54
2022/02/07 05:52:23;;;;;;;;;;;7.00;99.90;;;;;;4180545;28;19957;-54
2022/02/07 05:54:25;;;;;;;;;;;7.00;99.90;;;;;;4179120;28;20476;-53
2022/02/07 05:56:27;;;;;;;;;;;6.90;99.90;;;;;;4177784;28;19979;-53
2022/02/07 05:58:29;;;;;;;;;;;6.90;99.90;;;;;;4175462;28;20383;-54
2022/02/07 06:00:33;;;;;;;;;;;6.90;99.90;;;;;;4178404;28;20020;-53
2022/02/07 06:02:35;;;;;;;;;;;6.80;99.90;;;;;;4178813;28;19982;-53
2022/02/07 06:04:37;;;;;;;;;;;6.90;99.90;;;;;;4174208;28;19935;-54
2022/02/07 06:06:39;;;;;;;;;;;7.00;99.90;;;;;;4171943;28;19964;-53
2022/02/07 06:08:41;;;;;;;;;;;7.10;99.90;;;;;;4178671;28;19929;-53
2022/02/07 06:10:44;;;;;;;;;;;7.00;99.90;;;;;;4173574;28;19967;-53
2022/02/07 06:12:47;;;;;;;;;;;7.00;99.90;;;;;;4172237;28;20440;-54
2022/02/07 06:14:49;;;;;;;;;;;7.00;99.90;;;;;;4174980;28;20425;-53
2022/02/07 06:16:51;;;;;;;;;;;7.00;99.90;;;;;;4178889;28;20491;-54
2022/02/07 06:18:53;;;;;;;;;;;7.00;99.90;;;;;;4177577;28;20446;-54
2022/02/07 06:21:00;;;;;;;;;;;7.00;99.90;;;;;;4178309;28;20051;-53
2022/02/07 06:23:02;;;;;;;;;;;7.00;99.90;;;;;;4168421;28;20419;-46
2022/02/07 06:25:04;;;;;;;;;;;7.00;99.90;;;;;;4177891;28;19956;-50
2022/02/07 06:27:06;;;;;;;;;;;6.90;99.90;;;;;;4178552;28;19972;-48
2022/02/07 06:29:08;;;;;;;;;;;6.90;99.90;;;;;;4179102;28;19929;-50
2022/02/07 06:31:10;;;;;;;;;;;6.90;99.90;;;;;;4173365;28;19966;-50
2022/02/07 06:33:12;;;;;;;;;;;6.80;99.90;;;;;;4170214;28;19929;-50
2022/02/07 06:35:15;;;;;;;;;;;6.90;99.90;;;;;;4182017;28;19931;-49
2022/02/07 06:37:17;;;;;;;;;;;6.80;99.90;;;;;;4178264;28;19975;-50
2022/02/07 06:39:19;;;;;;;;;;;6.90;99.90;;;;;;4179565;28;19995;-49
2022/02/07 06:41:21;;;;;;;;;;;6.90;99.90;;;;;;4166132;28;19929;-50
2022/02/07 06:43:23;;;;;;;;;;;6.80;99.90;;;;;;4173483;28;19932;-47
2022/02/07 06:45:25;;;;;;;;;;;6.90;99.90;;;;;;4179305;28;19992;-48
2022/02/07 06:47:28;;;;;;;;;;;6.80;99.90;;;;;;4167710;28;19932;-46
2022/02/07 06:49:30;;;;;;;;;;;6.80;99.90;;;;;;4172448;28;20328;-46
2022/02/07 06:51:32;;;;;;;;;;;6.80;99.90;;;;;;4179348;28;19929;-47
2022/02/07 06:53:34;;;;;;;;;;;6.80;99.90;;;;;;4178460;28;19925;-47
2022/02/07 06:55:36;;;;;;;;;;;6.80;99.90;;;;;;4177518;28;19971;-49
2022/02/07 06:57:38;;;;;;;;;;;6.90;99.90;;;;;;4178421;28;20020;-51
2022/02/07 06:59:42;;;;;;;;;;;7.10;99.90;;;;;;4179208;28;19924;-48
2022/02/07 07:01:45;;;;;;;;;;;6.90;99.90;;;;;;4177928;28;19978;-51
2022/02/07 07:03:47;;;;;;;;;;;6.80;99.90;;;;;;4167263;28;20391;-48
2022/02/07 07:05:51;;;;;;;;;;;6.80;99.90;;;;;;4177847;28;19935;-50
2022/02/07 07:07:53;;;;;;;;;;;6.80;99.90;;;;;;4177235;28;19968;-47
2022/02/07 07:09:55;;;;;;;;;;;6.80;99.90;;;;;;4163500;28;19976;-48
2022/02/07 07:12:02;;;;;;;;;;;6.80;99.90;;;;;;4176121;28;19964;-50
2022/02/07 07:14:15;;;;;;;;;;;6.80;99.90;;;;;;4177495;28;19933;-50
2022/02/07 07:18:25;;;;;;;;;;;6.80;99.90;;;;;;4176096;28;20300;-50
2022/02/07 07:20:27;;;;;;;;;;;6.80;99.90;;;;;;4175593;28;19925;-51
2022/02/07 07:22:31;;;;;;;;;;;6.80;99.90;;;;;;4161543;28;19925;-49
2022/02/07 07:24:33;;;;;;;;;;;6.80;99.90;;;;;;4167825;28;19971;-49
2022/02/07 07:26:36;;;;;;;;;;;6.80;99.90;;;;;;4168784;28;19952;-50
2022/02/07 07:28:40;;;;;;;;;;;6.80;99.90;;;;;;4178604;28;19932;-48
2022/02/07 07:30:50;;;;;;;;;;;6.80;99.90;;;;;;4149875;28;20028;-51
2022/02/07 07:32:55;;;;;;;;;;;6.80;99.90;;;;;;4170472;28;19968;-48
2022/02/07 07:34:57;;;;;;;;;;;6.80;99.90;;;;;;4178831;28;19932;-47
2022/02/07 07:36:59;;;;;;;;;;;6.80;99.90;;;;;;4177413;28;19978;-50
2022/02/07 07:39:00;;;;;;;;;;;6.80;99.90;;;;;;4160781;28;19937;-48
2022/02/07 07:41:02;;;;;;;;;;;6.80;99.90;;;;;;4178348;28;19928;-50
2022/02/07 07:43:06;;;;;;;;;;;6.80;99.90;;;;;;4177377;28;20355;-50
2022/02/07 07:45:15;;;;;;;;;;;6.80;99.90;;;;;;4175899;28;19932;-49
2022/02/07 07:47:23;;;;;;;;;;;6.80;99.90;;;;;;4177791;28;19947;-50
2022/02/07 07:49:36;;;;;;;;;;;6.80;99.90;;;;;;4172877;28;19971;-48
2022/02/07 07:51:52;;;;;;;;;;;6.80;99.90;;;;;;4175513;28;19928;-50
2022/02/07 07:54:31;;;;;;;;;;;6.80;99.90;;;;;;4178622;28;20467;-48
2022/02/07 08:01:28;;;;;;;;;;;6.80;99.90;;;;;;4175592;28;19964;-47
2022/02/07 08:03:30;;;;;;;;;;;6.80;99.90;;;;;;4177254;28;19933;-48
2022/02/07 08:05:49;;;;;;;;;;;6.80;99.90;;;;;;4178595;28;20675;-48
2022/02/07 08:07:55;;;;;;;;;;;6.80;99.90;;;;;;4175945;28;19975;-47
2022/02/07 08:12:06;;;;;;;;;;;6.80;99.90;;;;;;4178288;28;19983;-48
2022/02/07 08:14:08;;;;;;;;;;;6.90;99.90;;;;;;4176325;28;20376;-48
2022/02/07 08:16:10;;;;;;;;;;;6.90;99.90;;;;;;4174824;28;19968;-48
2022/02/07 08:18:12;;;;;;;;;;;6.90;99.90;;;;;;4177395;28;20027;-47
2022/02/07 08:20:14;;;;;;;;;;;6.90;99.90;;;;;;4176879;28;19929;-50
2022/02/07 08:22:16;;;;;;;;;;;7.00;99.90;;;;;;4157710;28;20889;-52
2022/02/07 08:24:18;;;;;;;;;;;7.00;99.90;;;;;;4166046;28;20015;-50
2022/02/07 08:26:20;;;;;;;;;;;7.00;99.90;;;;;;4176542;28;19925;-51
2022/02/07 08:28:22;;;;;;;;;;;7.00;99.90;;;;;;4176349;28;19933;-50
2022/02/07 08:30:25;;;;;;;;;;;7.10;99.90;;;;;;4178452;28;19925;-50
2022/02/07 08:32:28;;;;;;;;;;;7.10;99.90;;;;;;4169749;28;19957;-51
2022/02/07 08:34:30;;;;;;;;;;;7.10;99.90;;;;;;4169105;28;20363;-51
2022/02/07 08:36:32;;;;;;;;;;;7.10;99.90;;;;;;4160855;28;19929;-51
2022/02/07 08:38:36;;;;;;;;;;;7.00;99.90;;;;;;4175181;28;19932;-48
2022/02/07 08:40:38;;;;;;;;;;;7.10;99.90;;;;;;4175207;28;19951;-51
2022/02/07 08:42:40;;;;;;;;;;;7.20;99.90;;;;;;4163593;28;19968;-48
2022/02/07 08:44:42;;;;;;;;;;;7.10;99.90;;;;;;4168896;28;20015;-50
2022/02/07 08:46:44;;;;;;;;;;;7.20;99.90;;;;;;4166876;28;20292;-50
2022/02/07 08:48:46;;;;;;;;;;;7.20;99.90;;;;;;4164001;28;20416;-50
2022/02/07 08:50:51;;;;;;;;;;;7.20;99.90;;;;;;4171911;28;19924;-51
2022/02/07 08:52:55;;;;;;;;;;;7.30;99.90;;;;;;4176514;28;21401;-51
2022/02/07 08:54:59;;;;;;;;;;;7.40;99.90;;;;;;4177340;28;19979;-51
2022/02/07 08:57:28;;;;;;;;;;;7.40;99.90;;;;;;4167644;28;19941;-48
2022/02/07 08:59:39;;;;;;;;;;;7.50;99.90;;;;;;4168549;28;19928;-50
2022/02/07 09:01:51;;;;;;;;;;;7.70;99.90;;;;;;4178092;28;19935;-50
2022/02/07 09:10:20;;;;;;;;;;;7.60;99.90;;;;;;4175743;28;19954;-50
2022/02/07 09:12:21;;;;;;;;;;;7.60;99.90;;;;;;4175925;28;19953;-50
2022/02/07 09:14:25;;;;;;;;;;;7.70;99.90;;;;;;4176538;28;20321;-50
2022/02/07 09:16:29;;;;;;;;;;;7.70;99.90;;;;;;4177744;28;19929;-51
2022/02/07 09:18:32;;;;;;;;;;;7.80;99.90;;;;;;4173066;28;19924;-49
2022/02/07 09:20:35;;;;;;;;;;;7.80;99.90;;;;;;4175471;28;19998;-50
2022/02/07 09:22:37;;;;;;;;;;;7.80;99.90;;;;;;4176792;28;19929;-51
2022/02/07 09:24:43;;;;;;;;;;;7.80;99.90;;;;;;4176088;28;19933;-51
2022/02/07 09:26:45;;;;;;;;;;;7.80;99.90;;;;;;4178761;28;19956;-50
2022/02/07 09:28:48;;;;;;;;;;;7.80;99.90;;;;;;4180646;28;20305;-51
2022/02/07 09:30:52;;;;;;;;;;;7.80;99.90;;;;;;4176833;28;20365;-50
2022/02/07 09:32:57;;;;;;;;;;;7.80;99.90;;;;;;4179428;28;20408;-51
2022/02/07 09:34:59;;;;;;;;;;;7.80;99.90;;;;;;4179473;28;20432;-51
2022/02/07 09:37:01;;;;;;;;;;;7.70;99.90;;;;;;4178877;28;19925;-49
2022/02/07 09:39:03;;;;;;;;;;;7.70;99.90;;;;;;4180556;28;19924;-50
2022/02/07 09:41:05;;;;;;;;;;;7.70;99.90;;;;;;4179399;28;19925;-49
2022/02/07 09:43:07;;;;;;;;;;;7.80;99.90;;;;;;4177536;28;20585;-50
2022/02/07 09:45:15;;;;;;;;;;;7.80;99.90;;;;;;4180813;28;19925;-48
2022/02/07 09:47:17;;;;;;;;;;;7.80;99.90;;;;;;4179482;28;19971;-50
2022/02/07 09:49:19;;;;;;;;;;;7.90;99.90;;;;;;4178781;28;20403;-51
2022/02/07 09:51:21;;;;;;;;;;;7.90;99.90;;;;;;4179312;28;19929;-50
2022/02/07 09:53:27;;;;;;;;;;;8.00;99.90;;;;;;4178992;28;19979;-48
2022/02/07 09:55:29;;;;;;;;;;;8.10;99.90;;;;;;4179008;28;19935;-50
2022/02/07 09:57:31;;;;;;;;;;;8.10;99.90;;;;;;4170867;28;20019;-50
2022/02/07 09:59:34;;;;;;;;;;;8.10;99.90;;;;;;4178048;28;20019;-51
2022/02/07 10:01:38;;;;;;;;;;;8.20;99.90;;;;;;4177402;28;19929;-51
2022/02/07 10:11:18;;;;;;;;;;;8.30;99.90;;;;;;4127308;28;19953;-51
2022/02/07 10:13:43;;;;;;;;;;;8.40;99.90;;;;;;4128701;28;20036;-51
2022/02/07 10:18:13;;;;;;;;;;;8.40;99.90;;;;;;4128554;28;19937;-48
2022/02/07 10:39:26;;;;;;;;;;;9.00;99.90;;;;;;4113845;28;20283;-51
2022/02/07 10:43:57;;;;;;;;;;;9.30;99.90;;;;;;4144909;28;20476;-50
2022/02/07 10:46:06;;;;;;;;;;;9.50;99.90;;;;;;4148177;28;19925;-50
2022/02/07 10:48:11;;;;;;;;;;;9.50;99.90;;;;;;4146568;28;20036;-50
2022/02/07 10:50:15;;;;;;;;;;;9.60;99.90;;;;;;4142905;28;19933;-51
2022/02/07 10:52:17;;;;;;;;;;;9.70;99.90;;;;;;4145893;28;19992;-51
2022/02/07 10:54:19;;;;;;;;;;;9.80;99.90;;;;;;4143057;28;19925;-51
2022/02/07 10:56:58;;;;;;;;;;;9.90;99.90;;;;;;4144572;28;20563;-52
2022/02/07 10:58:55;;;;;;;;;;;10.00;99.90;;;;;;4143793;28;20025;-51
2022/02/07 11:01:05;;;;;;;;;;;10.10;99.90;;;;;;4147962;28;19971;-51
2022/02/07 11:05:15;;;;;;;;;;;10.20;99.90;;;;;;4133581;28;19985;-51
2022/02/07 11:07:18;;;;;;;;;;;10.20;99.90;;;;;;4125559;28;19968;-50
2022/02/07 11:09:44;;;;;;;;;;;10.30;99.90;;;;;;4141862;28;19984;-50
2022/02/07 11:16:54;;;;;;;;;;;10.80;99.90;;;;;;4163095;28;19925;-50
2022/02/07 11:18:47;;;;;;;;;;;11.00;99.90;;;;;;4166455;28;19969;-49
2022/02/07 11:21:07;;;;;;;;;;;11.20;99.90;;;;;;4175938;28;19947;-50
2022/02/07 11:25:30;;;;;;;;;;;11.30;99.90;;;;;;4174985;28;20389;-47
2022/02/07 11:27:34;;;;;;;;;;;11.20;99.90;;;;;;4176976;28;19947;-52
2022/02/07 11:29:38;;;;;;;;;;;11.20;99.90;;;;;;4176452;28;20031;-49
2022/02/07 11:31:40;;;;;;;;;;;11.20;99.90;;;;;;4173395;28;20018;-51
2022/02/07 11:34:07;;;;;;;;;;;11.30;99.90;;;;;;4178116;28;19963;-51
2022/02/07 11:36:25;;;;;;;;;;;11.20;99.90;;;;;;4176012;28;20551;-51
2022/02/07 11:38:27;;;;;;;;;;;11.20;99.90;;;;;;4174764;28;20419;-50
2022/02/07 11:40:32;;;;;;;;;;;11.20;99.90;;;;;;4178713;28;19925;-51
2022/02/07 11:42:34;;;;;;;;;;;11.20;99.90;;;;;;4172790;28;19929;-52
2022/02/07 11:44:36;;;;;;;;;;;11.20;99.90;;;;;;4177146;28;19933;-51
2022/02/07 11:46:38;;;;;;;;;;;11.20;99.90;;;;;;4177761;28;20023;-55
2022/02/07 11:48:45;;;;;;;;;;;11.20;99.90;;;;;;4175962;28;19975;-55
2022/02/07 11:50:47;;;;;;;;;;;11.20;99.90;;;;;;4174260;28;23501;-55
2022/02/07 11:52:53;;;;;;;;;;;11.20;99.20;;;;;;4177444;28;20023;-55
2022/02/07 11:54:58;;;;;;;;;;;11.20;99.40;;;;;;4176071;28;19979;-54
2022/02/07 11:57:16;;;;;;;;;;;11.20;99.60;;;;;;4176999;28;19933;-55
2022/02/07 12:01:43;;;;;;;;;;;11.30;97.80;;;;;;4174013;28;19933;-56
2022/02/07 12:03:50;;;;;;;;;;;11.20;97.40;;;;;;4175527;28;19974;-52
2022/02/07 12:05:55;;;;;;;;;;;11.40;98.20;;;;;;4174406;28;19933;-56
2022/02/07 12:08:06;;;;;;;;;;;11.50;97.00;;;;;;4177077;28;19994;-56
2022/02/07 12:10:27;;;;;;;;;;;11.50;96.90;;;;;;4172246;28;19971;-54
2022/02/07 12:12:44;;;;;;;;;;;11.70;96.50;;;;;;4173867;28;19924;-55
2022/02/07 12:14:46;;;;;;;;;;;11.60;95.60;;;;;;4178376;28;19975;-56
2022/02/07 12:16:48;;;;;;;;;;;11.70;95.00;;;;;;4175534;28;19959;-56
2022/02/07 12:19:14;;;;;;;;;;;11.80;95.40;;;;;;4172229;28;20028;-56
2022/02/07 12:21:24;;;;;;;;;;;12.00;94.30;;;;;;4176406;28;19932;-54
2022/02/07 12:23:31;;;;;;;;;;;12.10;94.50;;;;;;4177352;28;20020;-54
2022/02/07 12:25:43;;;;;;;;;;;12.30;93.80;;;;;;4176807;28;19928;-55
2022/02/07 12:27:46;;;;;;;;;;;12.30;93.40;;;;;;4176516;28;19931;-56
2022/02/07 12:30:05;;;;;;;;;;;12.30;92.90;;;;;;4178407;28;20027;-55
2022/02/07 12:32:07;;;;;;;;;;;12.30;92.30;;;;;;4176297;28;19955;-55
2022/02/07 12:34:15;;;;;;;;;;;12.20;92.10;;;;;;4177639;28;19931;-56
2022/02/07 12:36:17;;;;;;;;;;;12.10;92.00;;;;;;4168232;28;19928;-56
2022/02/07 12:38:21;;;;;;;;;;;12.40;92.20;;;;;;4176412;28;19960;-56
2022/02/07 12:40:23;;;;;;;;;;;12.60;90.90;;;;;;4175554;28;19937;-55
2022/02/07 12:42:26;;;;;;;;;;;12.40;90.20;;;;;;4177934;28;19976;-49
2022/02/07 12:44:28;;;;;;;;;;;12.20;87.50;;;;;;4175410;28;20044;-56
2022/02/07 12:46:31;;;;;;;;;;;12.30;86.40;;;;;;4176456;28;19925;-57
2022/02/07 12:48:36;;;;;;;;;;;12.70;87.80;;;;;;4176408;28;20403;-57
2022/02/07 12:50:41;;;;;;;;;;;12.90;89.30;;;;;;4154962;28;20478;-57
2022/02/07 12:52:43;;;;;;;;;;;13.00;85.40;;;;;;4174951;28;19999;-56
2022/02/07 12:54:45;;;;;;;;;;;13.10;84.30;;;;;;4177329;28;19978;-56
2022/02/07 12:56:47;;;;;;;;;;;13.20;85.40;;;;;;4173990;28;19925;-57
2022/02/07 12:58:50;;;;;;;;;;;13.60;88.60;;;;;;4177214;28;19932;-57
2022/02/07 13:00:52;;;;;;;;;;;14.00;85.80;;;;;;4172867;28;19976;-56
2022/02/07 13:02:54;;;;;;;;;;;14.10;82.70;;;;;;4175554;28;19968;-57
2022/02/07 13:04:56;;;;;;;;;;;14.20;82.30;;;;;;4176848;28;19940;-56
2022/02/07 13:07:06;;;;;;;;;;;13.90;79.00;;;;;;4178472;28;19928;-57
2022/02/07 13:09:12;;;;;;;;;;;13.50;77.30;;;;;;4178285;28;19929;-56
2022/02/07 13:11:23;;;;;;;;;;;13.30;77.40;;;;;;4179776;28;20019;-57
2022/02/07 13:13:38;;;;;;;;;;;13.00;75.50;;;;;;4164895;28;19929;-56
2022/02/07 13:15:41;;;;;;;;;;;13.10;78.70;;;;;;4178170;28;20415;-56
2022/02/07 13:17:43;;;;;;;;;;;12.90;77.90;;;;;;4177607;28;19969;-56
2022/02/07 13:19:47;;;;;;;;;;;13.00;75.10;;;;;;4164793;28;20461;-56
2022/02/07 13:21:52;;;;;;;;;;;13.00;74.00;;;;;;4176912;28;19924;-56
2022/02/07 13:24:07;;;;;;;;;;;12.30;72.30;;;;;;4177841;28;19944;-56
2022/02/07 13:26:11;;;;;;;;;;;12.10;69.10;;;;;;4164910;28;19964;-57
2022/02/07 13:28:14;;;;;;;;;;;12.30;72.20;;;;;;4161467;28;20425;-56
2022/02/07 13:30:16;;;;;;;;;;;12.60;69.30;;;;;;4177826;28;19976;-56
2022/02/07 13:32:23;;;;;;;;;;;12.30;67.80;;;;;;4181146;28;19928;-56
2022/02/07 13:34:26;;;;;;;;;;;12.20;67.20;;;;;;4177213;28;19963;-57
2022/02/07 13:36:45;;;;;;;;;;;12.10;68.50;;;;;;4179266;28;20031;-55
2022/02/07 13:38:47;;;;;;;;;;;12.00;67.80;;;;;;4179527;28;19972;-55
2022/02/07 13:40:53;;;;;;;;;;;12.20;69.30;;;;;;4179178;28;20415;-57
2022/02/07 13:42:55;;;;;;;;;;;12.10;66.10;;;;;;4161192;28;20011;-56
2022/02/07 13:44:58;;;;;;;;;;;11.90;65.80;;;;;;4180716;28;20570;-56
2022/02/07 13:47:01;;;;;;;;;;;11.70;65.20;;;;;;4178262;28;19932;-56
2022/02/07 13:49:03;;;;;;;;;;;11.60;65.50;;;;;;4177848;28;19928;-57
2022/02/07 13:51:05;;;;;;;;;;;11.90;66.30;;;;;;4180680;28;20031;-55
2022/02/07 13:53:07;;;;;;;;;;;11.80;64.90;;;;;;4178255;28;19956;-57
2022/02/07 13:55:10;;;;;;;;;;;11.80;66.90;;;;;;4177413;28;19951;-57
2022/02/07 13:57:12;;;;;;;;;;;11.90;66.40;;;;;;4180542;28;20023;-56
2022/02/07 13:59:16;;;;;;;;;;;11.70;66.80;;;;;;4177325;28;19932;-57
2022/02/07 14:01:23;;;;;;;;;;;11.80;67.10;;;;;;4178928;28;20423;-55
2022/02/07 14:03:27;;;;;;;;;;;12.00;69.00;;;;;;4179770;28;20352;-57
2022/02/07 14:05:33;;;;;;;;;;;12.00;68.50;;;;;;4178687;28;19932;-56
2022/02/07 14:07:51;;;;;;;;;;;12.00;67.50;;;;;;4178817;28;19928;-55
2022/02/07 14:09:53;;;;;;;;;;;11.80;68.50;;;;;;4178839;28;19929;-56
2022/02/07 14:11:58;;;;;;;;;;;11.50;66.70;;;;;;4170569;28;19955;-56
2022/02/07 14:14:05;;;;;;;;;;;11.50;67.00;;;;;;4177071;28;19925;-56
2022/02/07 14:16:07;;;;;;;;;;;11.40;67.50;;;;;;4179852;28;19925;-57
2022/02/07 14:18:12;;;;;;;;;;;11.60;66.70;;;;;;4172892;28;19935;-55
2022/02/07 14:20:19;;;;;;;;;;;11.60;66.90;;;;;;4177112;28;19928;-56
2022/02/07 14:22:21;;;;;;;;;;;11.60;65.80;;;;;;4179957;28;19940;-56
2022/02/07 14:24:26;;;;;;;;;;;11.70;66.30;;;;;;4179203;28;19925;-56
2022/02/07 14:26:48;;;;;;;;;;;11.70;67.20;;;;;;4172314;28;19932;-56
2022/02/07 14:28:56;;;;;;;;;;;11.30;67.10;;;;;;4173590;28;19932;-55
2022/02/07 14:30:59;;;;;;;;;;;11.20;63.90;;;;;;4178888;28;19956;-56
2022/02/07 14:33:02;;;;;;;;;;;11.20;65.40;;;;;;4176740;28;20471;-55
2022/02/07 14:35:04;;;;;;;;;;;11.40;65.20;;;;;;4178245;28;19935;-55
2022/02/07 14:37:10;;;;;;;;;;;11.20;66.10;;;;;;4165095;28;21820;-56
2022/02/07 14:39:12;;;;;;;;;;;11.10;65.50;;;;;;4178425;28;20381;-55
2022/02/07 14:41:18;;;;;;;;;;;10.90;63.70;;;;;;4177878;28;19968;-55
2022/02/07 14:43:29;;;;;;;;;;;10.80;65.10;;;;;;4164810;28;19967;-55